createdAt,value
2018-06-13T07:11:16.580Z,16.80
2018-06-13T07:13:47.166Z,16.70
2018-06-13T07:16:20.467Z,16.80
2018-06-13T07:18:50.968Z,16.90
2018-06-13T07:21:22.907Z,17.30
2018-06-13T07:23:53.131Z,17.00
2018-06-13T07:26:23.479Z,16.90
2018-06-13T07:28:54.243Z,16.70
2018-06-13T07:31:25.165Z,16.90
2018-06-13T07:33:55.402Z,17.30
2018-06-13T07:36:25.619Z,17.40
2018-06-13T07:38:55.863Z,17.40
2018-06-13T07:41:26.354Z,17.40
2018-06-13T07:43:56.889Z,17.70
2018-06-13T07:46:27.152Z,18.10
2018-06-13T07:48:57.847Z,18.00
2018-06-13T07:51:28.579Z,18.10
2018-06-13T07:53:58.863Z,18.20
2018-06-13T07:56:29.144Z,18.00
2018-06-13T07:58:59.720Z,17.90
2018-06-13T08:01:29.952Z,17.80
2018-06-13T08:04:00.531Z,18.20
2018-06-13T08:06:30.882Z,18.60
2018-06-13T08:09:01.148Z,18.50
2018-06-13T08:11:32.690Z,18.00
2018-06-13T08:14:02.903Z,17.80
2018-06-13T08:16:33.365Z,18.30
2018-06-13T08:19:04.067Z,18.10
2018-06-13T08:21:34.338Z,18.10
2018-06-13T08:24:04.763Z,18.00
2018-06-13T08:26:35.611Z,17.80
2018-06-13T08:29:05.854Z,17.50
2018-06-13T08:31:36.064Z,18.00
2018-06-13T08:34:06.607Z,17.90
2018-06-13T08:36:36.916Z,17.90
2018-06-13T08:39:08.728Z,18.00
2018-06-13T08:41:39.583Z,18.10
2018-06-13T08:44:09.875Z,18.80
2018-06-13T08:46:40.093Z,18.60
2018-06-13T08:49:10.710Z,18.40
2018-06-13T08:51:41.036Z,18.30
2018-06-13T08:54:11.425Z,18.20
2018-06-13T08:56:41.963Z,18.30
2018-06-13T08:59:12.235Z,18.30
2018-06-13T09:01:42.504Z,18.50
2018-06-13T09:04:12.848Z,18.70
2018-06-13T09:06:43.079Z,18.40
2018-06-13T09:09:13.319Z,18.60
2018-06-13T09:11:43.616Z,18.80
2018-06-13T09:14:14.148Z,18.50
2018-06-13T09:16:44.711Z,18.90
2018-06-13T09:19:14.937Z,18.80
2018-06-13T09:21:45.368Z,18.80
2018-06-13T09:24:15.577Z,18.70
2018-06-13T09:26:46.134Z,18.80
2018-06-13T09:29:16.355Z,19.10
2018-06-13T09:31:46.575Z,19.30
2018-06-13T09:34:16.816Z,19.20
2018-06-13T09:36:47.062Z,19.10
2018-06-13T09:39:17.295Z,18.50
2018-06-13T09:41:52.631Z,18.90
2018-06-13T09:44:23.180Z,19.00
2018-06-13T09:46:53.403Z,18.80
2018-06-13T09:49:23.684Z,19.30
2018-06-13T09:51:54.205Z,19.30
2018-06-13T09:54:24.497Z,19.00
2018-06-13T09:56:55.020Z,18.80
2018-06-13T09:59:25.443Z,18.50
2018-06-13T10:02:00.768Z,18.90
2018-06-13T10:04:31.051Z,18.40
2018-06-13T10:07:01.371Z,18.30
2018-06-13T10:09:31.683Z,18.20
2018-06-13T10:12:02.021Z,17.90
2018-06-13T10:14:32.568Z,18.20
2018-06-13T10:17:02.819Z,18.30
2018-06-13T10:19:33.103Z,18.40
2018-06-13T10:22:03.622Z,18.40
2018-06-13T10:24:33.926Z,18.80
2018-06-13T10:27:09.995Z,19.30
2018-06-13T10:29:40.268Z,19.00
2018-06-13T10:32:10.588Z,19.00
2018-06-13T10:34:40.831Z,19.50
2018-06-13T10:37:11.341Z,19.40
2018-06-13T10:39:41.641Z,19.50
2018-06-13T10:42:11.968Z,19.10
2018-06-13T10:44:42.563Z,18.80
2018-06-13T10:47:13.747Z,18.80
2018-06-13T10:49:44.037Z,18.80
2018-06-13T10:52:14.575Z,18.80
2018-06-13T10:54:44.796Z,18.40
2018-06-13T10:57:15.500Z,18.80
2018-06-13T10:59:46.079Z,18.70
2018-06-13T11:02:16.419Z,18.60
2018-06-13T11:04:46.721Z,18.40
2018-06-13T11:07:17.037Z,18.10
2018-06-13T11:09:47.292Z,18.20
2018-06-13T11:12:18.256Z,17.80
2018-06-13T11:14:48.787Z,18.30
2018-06-13T11:17:19.124Z,18.60
2018-06-13T11:19:49.404Z,18.80
2018-06-13T11:22:19.676Z,18.40
2018-06-13T11:24:50.863Z,18.50
2018-06-13T11:27:21.414Z,18.40
2018-06-13T11:29:51.768Z,18.40
2018-06-13T11:32:22.019Z,17.80
2018-06-13T11:34:57.185Z,17.50
2018-06-13T11:37:28.232Z,17.60
2018-06-13T11:39:58.483Z,17.50
2018-06-13T11:42:28.729Z,18.30
2018-06-13T11:44:59.337Z,18.30
2018-06-13T11:47:29.731Z,18.20
2018-06-13T11:49:59.980Z,17.80
2018-06-13T11:52:30.513Z,17.80
2018-06-13T11:55:00.777Z,17.90
2018-06-13T11:57:31.572Z,18.00
2018-06-13T12:00:01.852Z,17.70
2018-06-13T12:02:32.109Z,17.30
2018-06-13T12:05:02.826Z,17.20
2018-06-13T12:07:33.131Z,17.20
2018-06-13T12:10:03.550Z,16.90
2018-06-13T12:12:35.314Z,16.30
2018-06-13T12:15:06.072Z,16.40
2018-06-13T12:20:07.449Z,16.70
2018-06-13T12:22:38.344Z,17.10
2018-06-13T12:25:08.759Z,17.30
2018-06-13T12:27:41.323Z,16.90
2018-06-13T12:32:44.416Z,17.60
2018-06-13T12:35:15.150Z,18.40
2018-06-13T12:37:45.923Z,19.20
2018-06-13T12:40:16.279Z,19.30
2018-06-13T12:42:47.251Z,19.10
2018-06-13T12:45:17.463Z,18.70
2018-06-13T12:47:48.080Z,18.20
2018-06-13T12:50:18.309Z,18.00
2018-06-13T12:52:48.615Z,18.10
2018-06-13T12:55:19.367Z,18.50
2018-06-13T12:57:49.604Z,18.30
2018-06-13T13:00:19.867Z,18.40
2018-06-13T13:02:50.651Z,18.50
2018-06-13T13:05:20.960Z,18.20
2018-06-13T13:07:51.489Z,18.00
2018-06-13T13:10:21.700Z,17.80
2018-06-13T13:12:51.992Z,17.60
2018-06-13T13:15:22.252Z,17.70
2018-06-13T13:17:52.880Z,17.80
2018-06-13T13:20:23.135Z,17.90
2018-06-13T13:22:53.519Z,18.40
2018-06-13T13:25:23.776Z,18.90
2018-06-13T13:27:54.666Z,18.80
2018-06-13T13:30:24.941Z,18.40
2018-06-13T13:32:55.667Z,18.20
2018-06-13T13:35:25.940Z,18.30
2018-06-13T13:37:56.157Z,18.10
2018-06-13T13:40:26.661Z,18.40
2018-06-13T13:42:56.886Z,18.20
2018-06-13T13:45:27.219Z,18.10
2018-06-13T13:47:58.040Z,18.40
2018-06-13T13:50:28.272Z,18.20
2018-06-13T13:53:05.088Z,18.40
2018-06-13T13:55:35.379Z,18.80
2018-06-13T13:58:06.262Z,20.00
2018-06-13T14:00:36.719Z,20.90
2018-06-13T14:03:06.983Z,21.50
2018-06-13T14:05:37.182Z,20.70
2018-06-13T14:08:07.460Z,20.70
2018-06-13T14:10:37.828Z,20.70
2018-06-13T14:13:08.999Z,20.90
2018-06-13T14:15:39.227Z,20.80
2018-06-13T14:18:09.692Z,21.00
2018-06-13T14:20:58.944Z,21.30
2018-06-13T14:23:30.047Z,20.50
2018-06-13T14:28:36.950Z,20.10
2018-06-13T14:33:37.842Z,20.90
2018-06-13T14:36:08.172Z,21.20
2018-06-13T14:38:38.767Z,20.60
2018-06-13T14:41:09.275Z,20.60
2018-06-13T14:43:40.092Z,19.80
2018-06-13T14:46:10.409Z,19.40
2018-06-13T14:48:40.803Z,19.00
2018-06-13T14:51:11.472Z,19.00
2018-06-13T14:53:42.319Z,18.30
2018-06-13T14:56:17.715Z,18.30
2018-06-13T14:58:50.595Z,18.60
2018-06-13T15:01:21.300Z,18.60
2018-06-13T15:03:53.538Z,18.50
2018-06-13T15:06:25.003Z,18.90
2018-06-13T15:08:56.202Z,19.10
2018-06-13T15:11:26.684Z,19.20
2018-06-13T15:13:57.463Z,19.00
2018-06-13T15:16:27.914Z,18.70
2018-06-13T15:18:58.267Z,18.30
2018-06-13T15:21:28.635Z,18.00
2018-06-13T15:35:29.810Z,17.60
2018-06-13T15:44:26.103Z,17.60
2018-06-13T15:47:24.993Z,17.90
2018-06-13T15:53:55.672Z,17.50
2018-06-13T16:05:17.905Z,17.40
2018-06-13T16:22:55.155Z,17.60
2018-06-13T16:25:25.557Z,17.50
2018-06-13T16:27:56.108Z,17.40
2018-06-13T16:30:26.418Z,17.20
2018-06-13T16:32:56.719Z,17.10
2018-06-13T16:35:27.263Z,17.10
2018-06-13T16:37:57.902Z,17.00
2018-06-13T16:40:28.439Z,17.10
2018-06-13T16:42:59.175Z,17.10
2018-06-13T16:45:29.463Z,17.20
2018-06-13T16:48:00.064Z,17.00
2018-06-13T16:50:41.340Z,17.10
2018-06-13T16:53:24.239Z,16.90
2018-06-13T16:55:55.299Z,16.90
2018-06-13T16:58:25.652Z,17.10
2018-06-13T17:00:56.251Z,17.20
2018-06-13T17:03:26.883Z,17.10
2018-06-13T17:05:57.178Z,17.10
2018-06-13T17:08:27.790Z,17.00
2018-06-13T17:10:58.240Z,17.00
2018-06-13T17:13:28.571Z,16.90
2018-06-13T17:15:58.791Z,16.80
2018-06-13T17:18:29.278Z,16.60
2018-06-13T17:20:59.946Z,16.80
2018-06-13T17:23:30.871Z,17.10
2018-06-13T17:26:01.487Z,16.90
2018-06-13T17:28:31.959Z,16.70
2018-06-13T17:31:02.217Z,16.70
2018-06-13T17:33:33.109Z,16.40
2018-06-13T17:36:03.535Z,16.40
2018-06-13T17:38:34.455Z,16.40
2018-06-13T17:41:04.879Z,16.50
